createdAt,value
2023-12-09T00:00:23.747Z,2.25
2023-12-09T00:03:09.852Z,2.35
2023-12-09T00:05:55.946Z,2.25
2023-12-09T00:08:42.077Z,2.83
2023-12-09T00:11:27.468Z,2.67
2023-12-09T00:14:13.125Z,2.28
2023-12-09T00:16:58.503Z,1.80
2023-12-09T00:19:44.179Z,2.00
2023-12-09T00:22:30.137Z,3.35
2023-12-09T00:25:16.003Z,2.00
2023-12-09T00:28:01.631Z,2.63
2023-12-09T00:30:47.021Z,1.95
2023-12-09T00:33:32.713Z,2.38
2023-12-09T00:36:18.604Z,4.13
2023-12-09T00:39:03.985Z,8.35
2023-12-09T00:41:49.445Z,3.45
2023-12-09T00:44:34.899Z,8.25
2023-12-09T00:47:20.459Z,10.32
2023-12-09T00:50:07.106Z,7.35
2023-12-09T00:52:52.337Z,6.97
2023-12-09T00:55:37.970Z,10.95
2023-12-09T00:58:23.502Z,4.68
2023-12-09T01:01:08.933Z,3.22
2023-12-09T01:03:54.886Z,10.65
2023-12-09T01:06:40.605Z,8.75
2023-12-09T01:09:26.885Z,6.47
2023-12-09T01:12:12.296Z,4.47
2023-12-09T01:14:57.898Z,3.75
2023-12-09T01:17:44.113Z,5.53
2023-12-09T01:20:29.976Z,6.65
2023-12-09T01:23:15.566Z,6.03
2023-12-09T01:26:01.306Z,3.80
2023-12-09T01:28:46.841Z,2.42
2023-12-09T01:31:32.873Z,1.70
2023-12-09T01:34:18.511Z,2.33
2023-12-09T01:37:04.178Z,1.90
2023-12-09T01:39:49.647Z,2.10
2023-12-09T01:42:35.050Z,1.90
2023-12-09T01:45:21.633Z,1.80
2023-12-09T01:48:09.365Z,2.42
2023-12-09T01:50:54.804Z,2.67
2023-12-09T01:53:40.135Z,1.83
2023-12-09T01:56:26.045Z,1.90
2023-12-09T01:59:11.587Z,2.10
2023-12-09T02:01:57.787Z,2.08
2023-12-09T02:04:43.223Z,1.95
2023-12-09T02:07:28.981Z,5.68
2023-12-09T02:10:14.572Z,3.20
2023-12-09T02:13:24.300Z,2.90
2023-12-09T02:16:18.469Z,2.33
2023-12-09T02:19:08.538Z,2.63
2023-12-09T02:22:03.033Z,3.00
2023-12-09T02:24:48.526Z,3.05
2023-12-09T02:27:45.154Z,2.63
2023-12-09T02:30:41.037Z,2.75
2023-12-09T02:33:27.472Z,3.35
2023-12-09T02:36:20.682Z,3.72
2023-12-09T02:39:08.528Z,3.63
2023-12-09T02:41:57.326Z,3.65
2023-12-09T02:44:43.815Z,3.22
2023-12-09T02:47:29.469Z,4.35
2023-12-09T02:50:15.350Z,7.80
2023-12-09T02:53:00.825Z,6.40
2023-12-09T02:55:46.211Z,8.00
2023-12-09T02:58:31.611Z,5.47
2023-12-09T03:01:17.031Z,8.98
2023-12-09T03:04:02.856Z,7.05
2023-12-09T03:06:48.840Z,6.07
2023-12-09T03:09:34.182Z,4.43
2023-12-09T03:12:19.586Z,6.80
2023-12-09T03:15:06.792Z,4.70
2023-12-09T03:17:52.855Z,5.45
2023-12-09T03:20:38.377Z,5.97
2023-12-09T03:23:23.664Z,8.05
2023-12-09T03:26:20.119Z,5.00
2023-12-09T03:29:05.759Z,6.55
2023-12-09T03:31:51.085Z,5.40
2023-12-09T03:34:36.609Z,6.25
2023-12-09T03:37:22.435Z,8.88
2023-12-09T03:40:11.248Z,5.97
2023-12-09T03:42:56.608Z,4.68
2023-12-09T03:45:42.414Z,9.65
2023-12-09T03:48:30.291Z,7.68
2023-12-09T03:51:16.082Z,6.88
2023-12-09T03:54:02.192Z,8.15
2023-12-09T03:56:47.496Z,8.45
2023-12-09T03:59:32.733Z,7.50
2023-12-09T04:02:19.644Z,7.55
2023-12-09T04:05:07.408Z,9.32
2023-12-09T04:07:52.792Z,8.02
2023-12-09T04:10:38.318Z,6.57
2023-12-09T04:13:23.589Z,5.55
2023-12-09T04:16:09.243Z,5.65
2023-12-09T04:18:54.892Z,5.95
2023-12-09T04:21:40.219Z,6.68
2023-12-09T04:24:26.093Z,6.93
2023-12-09T04:27:11.444Z,8.20
2023-12-09T04:29:56.888Z,5.50
2023-12-09T04:32:42.614Z,7.88
2023-12-09T04:35:28.247Z,5.68
2023-12-09T04:38:13.917Z,7.63
2023-12-09T04:40:59.490Z,5.60
2023-12-09T04:43:44.962Z,5.50
2023-12-09T04:46:31.109Z,5.45
2023-12-09T04:49:16.801Z,6.25
2023-12-09T04:52:02.652Z,8.00
2023-12-09T04:54:48.327Z,10.68
2023-12-09T04:57:33.810Z,11.57
2023-12-09T05:00:19.413Z,14.63
2023-12-09T05:03:04.963Z,16.75
2023-12-09T05:05:51.025Z,18.75
2023-12-09T05:08:36.497Z,18.30
2023-12-09T05:11:21.766Z,14.95
2023-12-09T05:14:07.331Z,9.63
2023-12-09T05:16:52.940Z,8.32
2023-12-09T05:19:38.670Z,6.70
2023-12-09T05:22:24.297Z,6.50
2023-12-09T05:25:10.419Z,7.35
2023-12-09T05:27:56.171Z,8.90
2023-12-09T05:30:43.060Z,12.30
2023-12-09T05:33:29.080Z,4.88
2023-12-09T05:36:15.294Z,3.05
2023-12-09T05:39:00.811Z,5.25
2023-12-09T05:41:46.143Z,3.45
2023-12-09T05:44:31.635Z,8.80
2023-12-09T05:47:17.060Z,10.55
2023-12-09T05:50:02.429Z,8.85
2023-12-09T05:52:47.690Z,7.38
2023-12-09T05:55:33.054Z,4.80
2023-12-09T05:58:19.371Z,4.63
2023-12-09T06:01:04.997Z,3.90
2023-12-09T06:03:50.334Z,4.72
2023-12-09T06:06:35.951Z,4.30
2023-12-09T06:09:21.778Z,5.07
2023-12-09T06:12:07.542Z,4.32
2023-12-09T06:14:54.472Z,4.00
2023-12-09T06:17:40.445Z,4.15
2023-12-09T06:20:26.081Z,2.35
2023-12-09T06:23:11.718Z,3.38
2023-12-09T06:25:57.240Z,4.88
2023-12-09T06:28:42.909Z,2.97
2023-12-09T06:31:28.362Z,4.43
2023-12-09T06:34:13.941Z,3.30
2023-12-09T06:36:59.774Z,2.58
2023-12-09T06:39:45.606Z,4.53
2023-12-09T06:42:31.880Z,4.38
2023-12-09T06:45:18.041Z,5.63
2023-12-09T06:48:04.236Z,6.05
2023-12-09T06:50:50.059Z,3.53
2023-12-09T06:53:39.876Z,3.95
2023-12-09T06:56:25.456Z,2.92
2023-12-09T06:59:11.488Z,3.92
2023-12-09T07:01:58.009Z,9.00
2023-12-09T07:04:43.527Z,16.10
2023-12-09T07:07:29.318Z,22.45
2023-12-09T07:10:14.853Z,16.55
2023-12-09T07:13:00.607Z,17.25
2023-12-09T07:15:46.023Z,23.63
2023-12-09T07:18:31.886Z,28.75
2023-12-09T07:21:18.006Z,19.77
2023-12-09T07:24:05.164Z,22.73
2023-12-09T07:26:52.166Z,18.90
2023-12-09T07:29:37.608Z,17.17
2023-12-09T07:32:23.383Z,11.25
2023-12-09T07:35:09.302Z,15.50
2023-12-09T07:37:56.178Z,11.77
2023-12-09T07:40:42.168Z,8.73
2023-12-09T07:43:27.763Z,9.32
2023-12-09T07:46:13.451Z,12.98
2023-12-09T07:48:58.824Z,9.98
2023-12-09T07:51:44.403Z,8.40
2023-12-09T07:54:29.928Z,7.63
2023-12-09T07:57:15.607Z,10.50
2023-12-09T08:00:01.661Z,9.45
2023-12-09T08:02:47.402Z,10.18
2023-12-09T08:05:35.807Z,8.73
2023-12-09T08:08:21.716Z,10.18
2023-12-09T08:11:07.533Z,12.02
2023-12-09T08:13:53.018Z,11.07
2023-12-09T08:16:38.410Z,14.27
2023-12-09T08:19:24.347Z,14.07
2023-12-09T08:22:10.217Z,15.18
2023-12-09T08:24:55.557Z,15.88
2023-12-09T08:27:40.915Z,15.50
2023-12-09T08:30:26.374Z,13.60
2023-12-09T08:33:12.049Z,13.00
2023-12-09T08:35:57.939Z,13.73
2023-12-09T08:38:43.175Z,11.75
2023-12-09T08:41:30.785Z,8.02
2023-12-09T08:44:16.491Z,4.82
2023-12-09T08:47:01.971Z,2.88
2023-12-09T08:49:47.379Z,3.17
2023-12-09T08:52:33.751Z,4.55
2023-12-09T08:55:19.374Z,5.35
2023-12-09T08:58:05.047Z,4.70
2023-12-09T09:00:53.277Z,5.70
2023-12-09T09:03:38.943Z,4.03
2023-12-09T09:06:24.312Z,5.68
2023-12-09T09:09:12.811Z,3.90
2023-12-09T09:11:58.663Z,2.50
2023-12-09T09:14:44.922Z,2.58
2023-12-09T09:17:30.248Z,2.00
2023-12-09T09:20:16.180Z,2.10
2023-12-09T09:23:01.843Z,5.72
2023-12-09T09:25:47.459Z,2.75
2023-12-09T09:28:33.284Z,2.78
2023-12-09T09:31:18.849Z,3.65
2023-12-09T09:34:04.748Z,2.85
2023-12-09T09:36:50.483Z,4.32
2023-12-09T09:39:36.230Z,2.70
2023-12-09T09:42:45.361Z,3.22
2023-12-09T09:45:32.469Z,7.28
2023-12-09T09:48:19.270Z,4.30
2023-12-09T09:51:08.596Z,6.43
2023-12-09T09:54:22.100Z,4.78
2023-12-09T09:59:57.348Z,5.75
2023-12-09T10:02:48.870Z,7.40
2023-12-09T10:05:34.173Z,5.65
2023-12-09T10:08:19.852Z,13.85
2023-12-09T10:11:05.307Z,4.75
2023-12-09T10:13:51.159Z,4.43
2023-12-09T10:16:37.014Z,7.10
2023-12-09T10:19:22.765Z,4.82
2023-12-09T10:22:08.498Z,3.78
2023-12-09T10:24:55.743Z,3.33
2023-12-09T10:27:42.938Z,4.22
2023-12-09T10:30:28.797Z,3.03
2023-12-09T10:33:16.518Z,3.53
2023-12-09T10:36:03.003Z,4.72
2023-12-09T10:38:48.516Z,3.22
2023-12-09T10:41:33.840Z,4.78
2023-12-09T10:44:19.677Z,4.70
2023-12-09T10:47:05.806Z,4.40
2023-12-09T10:49:52.747Z,2.95
2023-12-09T10:52:39.407Z,3.35
2023-12-09T10:55:25.296Z,3.58
2023-12-09T10:58:13.231Z,4.72
2023-12-09T11:00:59.164Z,3.97
2023-12-09T11:03:44.752Z,6.30
2023-12-09T11:06:38.863Z,5.65
2023-12-09T11:09:24.878Z,3.90
2023-12-09T11:12:10.395Z,4.32
2023-12-09T11:14:56.459Z,3.00
2023-12-09T11:17:45.321Z,4.65
2023-12-09T11:20:31.166Z,4.47
2023-12-09T11:23:16.850Z,7.07
2023-12-09T11:26:02.432Z,3.05
2023-12-09T11:29:08.496Z,2.60
2023-12-09T11:31:54.576Z,2.67
2023-12-09T11:34:40.525Z,2.63
2023-12-09T11:37:31.244Z,3.17
2023-12-09T11:40:17.045Z,2.65
2023-12-09T11:43:04.564Z,3.22
2023-12-09T11:45:51.564Z,4.53
2023-12-09T11:48:37.720Z,3.63
2023-12-09T11:51:23.183Z,4.95
2023-12-09T11:54:10.673Z,2.97
2023-12-09T11:56:56.649Z,2.90
2023-12-09T11:59:41.915Z,3.60
2023-12-09T12:02:28.008Z,6.68
2023-12-09T12:05:13.683Z,7.15
2023-12-09T12:07:59.623Z,1.90
2023-12-09T12:10:45.113Z,2.00
2023-12-09T12:13:31.194Z,2.70
2023-12-09T12:16:17.271Z,4.25
2023-12-09T12:19:02.795Z,4.82
2023-12-09T12:21:57.582Z,2.58
2023-12-09T12:24:46.454Z,4.22
2023-12-09T12:27:36.970Z,5.10
2023-12-09T12:30:24.410Z,6.50
2023-12-09T12:33:10.247Z,5.78
2023-12-09T12:35:56.562Z,4.95
2023-12-09T12:38:42.219Z,5.78
2023-12-09T12:41:27.672Z,6.80
2023-12-09T12:44:13.077Z,6.22
2023-12-09T12:46:58.770Z,4.30
2023-12-09T12:49:44.539Z,5.03
2023-12-09T12:52:30.623Z,6.13
2023-12-09T12:55:16.275Z,5.03
2023-12-09T12:58:01.596Z,7.70
2023-12-09T13:00:50.631Z,18.48
2023-12-09T13:03:36.708Z,8.65
2023-12-09T13:06:22.330Z,5.03
2023-12-09T13:09:09.768Z,6.18
2023-12-09T13:11:55.557Z,5.40
2023-12-09T13:14:41.071Z,5.70
2023-12-09T13:17:26.800Z,9.52
2023-12-09T13:20:12.581Z,6.85
2023-12-09T13:22:58.505Z,5.82
2023-12-09T13:25:43.941Z,3.63
2023-12-09T13:28:29.527Z,4.15
2023-12-09T13:31:16.187Z,3.60
2023-12-09T13:34:02.274Z,1.98
2023-12-09T13:36:48.254Z,5.47
2023-12-09T13:39:34.563Z,4.50
2023-12-09T13:42:20.036Z,7.32
2023-12-09T13:45:07.136Z,10.75
2023-12-09T13:47:52.775Z,11.45
2023-12-09T13:50:40.857Z,6.57
2023-12-09T13:53:27.613Z,7.97
2023-12-09T13:56:12.982Z,6.40
2023-12-09T13:58:58.406Z,7.20
2023-12-09T14:01:44.227Z,8.55
2023-12-09T14:04:30.214Z,12.55
2023-12-09T14:07:16.554Z,11.05
2023-12-09T14:10:02.370Z,11.98
2023-12-09T14:12:48.919Z,9.55
2023-12-09T14:15:34.614Z,6.78
2023-12-09T14:18:20.659Z,8.43
2023-12-09T14:21:07.498Z,3.45
2023-12-09T14:23:53.302Z,3.25
2023-12-09T14:26:39.249Z,2.95
2023-12-09T14:29:25.022Z,2.20
2023-12-09T14:32:11.364Z,4.25
2023-12-09T14:34:56.845Z,5.32
2023-12-09T14:37:44.077Z,6.10
2023-12-09T14:40:29.772Z,12.85
2023-12-09T14:43:15.038Z,8.25
2023-12-09T14:46:00.634Z,9.98
2023-12-09T14:48:46.573Z,10.40
2023-12-09T14:51:40.660Z,8.95
2023-12-09T14:54:30.111Z,9.23
2023-12-09T14:57:18.324Z,10.32
2023-12-09T15:00:05.074Z,11.93
2023-12-09T15:02:50.405Z,25.70
2023-12-09T15:05:36.061Z,23.25
2023-12-09T15:08:22.140Z,17.23
2023-12-09T15:11:07.454Z,13.30
2023-12-09T15:13:52.810Z,13.75
2023-12-09T15:16:38.138Z,13.30
2023-12-09T15:19:23.660Z,13.40
2023-12-09T15:22:09.297Z,13.82
2023-12-09T15:24:54.801Z,18.30
2023-12-09T15:27:40.371Z,18.83
2023-12-09T15:30:26.030Z,9.05
2023-12-09T15:33:11.872Z,13.70
2023-12-09T15:35:58.836Z,20.80
2023-12-09T15:38:44.418Z,21.52
2023-12-09T15:41:29.852Z,12.75
2023-12-09T15:44:17.613Z,12.85
2023-12-09T15:47:03.420Z,9.73
2023-12-09T15:49:48.806Z,6.32
2023-12-09T15:52:34.315Z,17.38
2023-12-09T15:55:19.785Z,95.93
2023-12-09T15:58:05.454Z,46.33
2023-12-09T16:00:50.926Z,17.38
2023-12-09T16:03:37.716Z,15.38
2023-12-09T16:06:23.465Z,14.05
2023-12-09T16:09:09.056Z,10.23
2023-12-09T16:11:54.374Z,13.27
2023-12-09T16:14:40.235Z,8.52
2023-12-09T16:17:25.981Z,7.90
2023-12-09T16:20:12.218Z,41.70
2023-12-09T16:22:57.982Z,6.22
2023-12-09T16:25:43.446Z,4.63
2023-12-09T16:28:28.803Z,4.97
2023-12-09T16:31:16.422Z,6.18
2023-12-09T16:34:03.991Z,8.18
2023-12-09T16:36:49.718Z,10.73
2023-12-09T16:39:35.444Z,8.13
2023-12-09T16:42:21.533Z,6.60
2023-12-09T16:45:09.970Z,11.10
2023-12-09T16:47:56.452Z,11.85
2023-12-09T16:50:42.396Z,16.58
2023-12-09T16:53:28.267Z,16.33
2023-12-09T16:56:13.637Z,20.13
2023-12-09T16:58:59.288Z,13.05
2023-12-09T17:01:44.852Z,16.33
2023-12-09T17:04:30.302Z,10.07
2023-12-09T17:07:16.049Z,6.22
2023-12-09T17:10:01.539Z,7.35
2023-12-09T17:12:48.475Z,7.20
2023-12-09T17:15:33.947Z,6.38
2023-12-09T17:18:20.340Z,23.40
2023-12-09T17:21:05.911Z,21.90
2023-12-09T17:23:51.356Z,23.85
2023-12-09T17:26:36.701Z,25.33
2023-12-09T17:29:22.101Z,22.80
2023-12-09T17:32:07.471Z,23.10
2023-12-09T17:34:53.092Z,16.25
2023-12-09T17:37:38.628Z,12.27
2023-12-09T17:40:23.931Z,7.65
2023-12-09T17:43:09.297Z,7.28
2023-12-09T17:45:55.159Z,5.80
2023-12-09T17:48:41.818Z,5.50
2023-12-09T17:51:27.705Z,5.30
2023-12-09T17:54:13.244Z,7.13
2023-12-09T17:56:58.526Z,8.32
2023-12-09T17:59:43.877Z,9.70
2023-12-09T18:02:29.344Z,6.60
2023-12-09T18:05:15.142Z,14.57
2023-12-09T18:08:00.491Z,10.00
2023-12-09T18:10:45.904Z,10.90
2023-12-09T18:13:31.165Z,15.07
2023-12-09T18:16:18.101Z,14.65
2023-12-09T18:19:04.579Z,14.63
2023-12-09T18:21:50.496Z,11.60
2023-12-09T18:24:36.336Z,12.02
2023-12-09T18:27:22.847Z,8.20
2023-12-09T18:30:11.307Z,8.05
2023-12-09T18:32:57.105Z,8.05
2023-12-09T18:35:42.896Z,13.88
2023-12-09T18:38:29.075Z,21.77
2023-12-09T18:41:15.436Z,22.63
2023-12-09T18:44:01.137Z,10.65
2023-12-09T18:46:46.535Z,17.67
2023-12-09T18:49:32.449Z,24.25
2023-12-09T18:52:18.396Z,20.60
2023-12-09T18:55:04.869Z,16.02
2023-12-09T18:57:50.860Z,8.57
2023-12-09T19:00:37.195Z,11.13
2023-12-09T19:03:24.684Z,23.25
2023-12-09T19:06:11.151Z,16.80
2023-12-09T19:08:56.437Z,9.10
2023-12-09T19:11:42.152Z,8.75
2023-12-09T19:14:27.441Z,7.50
2023-12-09T19:17:13.132Z,8.65
2023-12-09T19:19:58.850Z,7.53
2023-12-09T19:22:44.563Z,4.38
2023-12-09T19:25:29.846Z,7.28
2023-12-09T19:28:15.281Z,4.75
2023-12-09T19:31:00.649Z,6.90
2023-12-09T19:33:46.778Z,4.80
2023-12-09T19:36:32.669Z,7.50
2023-12-09T19:39:18.142Z,6.90
2023-12-09T19:42:03.684Z,13.65
2023-12-09T19:44:49.107Z,13.73
2023-12-09T19:47:34.698Z,12.55
2023-12-09T19:50:22.915Z,16.42
2023-12-09T19:53:09.917Z,5.95
2023-12-09T19:55:56.542Z,4.38
2023-12-09T19:58:42.323Z,5.47
2023-12-09T20:01:28.007Z,4.43
2023-12-09T20:04:13.331Z,5.03
2023-12-09T20:06:59.121Z,8.60
2023-12-09T20:09:44.500Z,8.73
2023-12-09T20:12:30.754Z,9.15
2023-12-09T20:15:17.055Z,1.75
2023-12-09T20:18:03.024Z,2.13
2023-12-09T20:20:49.082Z,2.40
2023-12-09T20:23:34.428Z,1.38
2023-12-09T20:26:19.896Z,1.17
2023-12-09T20:29:05.631Z,1.67
2023-12-09T20:31:51.361Z,1.50
2023-12-09T20:34:36.848Z,1.65
2023-12-09T20:37:22.668Z,1.50
2023-12-09T20:40:08.949Z,2.20
2023-12-09T20:42:54.525Z,1.25
2023-12-09T20:45:40.435Z,1.13
2023-12-09T20:48:26.268Z,1.85
2023-12-09T20:51:11.977Z,0.80
2023-12-09T20:53:57.266Z,0.70
2023-12-09T20:56:42.745Z,0.90
2023-12-09T20:59:28.318Z,0.70
2023-12-09T21:02:14.090Z,1.05
2023-12-09T21:05:00.969Z,0.60
2023-12-09T21:07:46.466Z,0.70
2023-12-09T21:10:31.979Z,0.57
2023-12-09T21:13:17.335Z,0.70
2023-12-09T21:16:03.702Z,0.50
2023-12-09T21:18:49.399Z,0.70
2023-12-09T21:21:35.017Z,0.50
2023-12-09T21:24:20.373Z,0.60
2023-12-09T21:27:05.799Z,0.50
2023-12-09T21:29:51.344Z,0.60
2023-12-09T21:32:36.938Z,1.10
2023-12-09T21:35:23.214Z,0.60
2023-12-09T21:38:08.827Z,0.70
2023-12-09T21:40:54.532Z,0.35
2023-12-09T21:43:40.070Z,0.40
2023-12-09T21:46:25.683Z,0.40
2023-12-09T21:49:11.478Z,0.40
2023-12-09T21:51:58.530Z,0.25
2023-12-09T21:54:46.037Z,1.83
2023-12-09T21:57:32.609Z,0.20
2023-12-09T22:00:18.613Z,0.28
2023-12-09T22:03:04.299Z,0.20
2023-12-09T22:05:49.685Z,0.45
2023-12-09T22:08:34.877Z,0.45
2023-12-09T22:11:21.360Z,0.25
2023-12-09T22:14:06.952Z,0.30
2023-12-09T22:16:53.292Z,1.02
2023-12-09T22:19:39.031Z,3.25
2023-12-09T22:22:24.971Z,0.40
2023-12-09T22:25:13.577Z,0.40
2023-12-09T22:27:59.205Z,0.50
2023-12-09T22:30:44.774Z,0.50
2023-12-09T22:33:30.162Z,0.80
2023-12-09T22:36:21.672Z,0.52
2023-12-09T22:39:12.933Z,0.75
2023-12-09T22:41:58.796Z,0.60
2023-12-09T22:44:44.555Z,0.90
2023-12-09T22:47:31.171Z,0.60
2023-12-09T22:50:17.186Z,0.57
2023-12-09T22:53:02.941Z,0.60
2023-12-09T22:55:48.253Z,0.40
2023-12-09T22:58:33.583Z,0.50
2023-12-09T23:01:29.059Z,0.32
2023-12-09T23:04:14.795Z,1.55
2023-12-09T23:07:00.337Z,0.63
2023-12-09T23:09:46.083Z,0.85
2023-12-09T23:12:32.192Z,0.60
2023-12-09T23:15:17.887Z,0.98
2023-12-09T23:18:03.553Z,1.00
2023-12-09T23:20:48.912Z,1.90
2023-12-09T23:23:35.287Z,0.98
2023-12-09T23:26:20.819Z,0.75
2023-12-09T23:29:08.164Z,1.00
2023-12-09T23:31:53.523Z,0.60
2023-12-09T23:34:38.993Z,0.73
2023-12-09T23:37:24.755Z,0.55
2023-12-09T23:40:10.981Z,0.50
2023-12-09T23:42:56.927Z,0.50
2023-12-09T23:45:43.892Z,0.73
2023-12-09T23:48:29.796Z,0.52
2023-12-09T23:51:16.298Z,0.52
2023-12-09T23:54:01.756Z,0.50
2023-12-09T23:56:47.317Z,0.52
2023-12-09T23:59:33.146Z,0.38
